Time;durP1;ratioP1;P1;durP2;ratioP2;P2;SDS_P1;SDS_P2;PMS_P1;PMS_P2;Temp;Humidity;BMP_temperature;BMP_pressure;BME280_temperature;BME280_humidity;BME280_pressure;Samples;Min_cycle;Max_cycle;Signal;HPM_P1;HPM_P2
2023/09/27 00:02:21;;;;;;;5.17;4.70;;;17.80;99.90;;;;;;6248716;23;20149;-40
2023/09/27 00:04:46;;;;;;;4.60;4.00;;;17.80;99.90;;;;;;6248659;23;20188;-38
2023/09/27 00:07:12;;;;;;;5.73;4.83;;;17.70;99.90;;;;;;6248619;23;20521;-40
2023/09/27 00:09:37;;;;;;;4.50;4.10;;;17.70;99.90;;;;;;6246230;23;20284;-40
2023/09/27 00:12:05;;;;;;;4.87;4.47;;;17.70;99.90;;;;;;6247958;23;20161;-39
2023/09/27 00:14:31;;;;;;;5.07;4.57;;;17.70;99.90;;;;;;6248240;22;20149;-40
2023/09/27 00:16:58;;;;;;;6.37;5.03;;;17.60;99.90;;;;;;6248834;22;20380;-40
2023/09/27 00:19:25;;;;;;;5.70;4.30;;;17.60;99.90;;;;;;6247913;22;20478;-40
2023/09/27 00:21:51;;;;;;;6.97;5.37;;;17.60;99.90;;;;;;6246969;22;20399;-39
2023/09/27 00:24:17;;;;;;;5.37;4.70;;;17.60;99.90;;;;;;6248234;23;20748;-39
2023/09/27 00:26:42;;;;;;;5.10;4.10;;;17.60;99.90;;;;;;6248282;23;20388;-39
2023/09/27 00:29:08;;;;;;;4.90;4.40;;;17.50;99.90;;;;;;6248965;23;20181;-41
2023/09/27 00:31:33;;;;;;;5.77;5.27;;;17.50;99.90;;;;;;6248008;23;20200;-43
2023/09/27 00:33:59;;;;;;;4.53;4.13;;;17.50;99.90;;;;;;6248066;23;20168;-40
2023/09/27 00:36:24;;;;;;;4.87;4.37;;;17.50;99.90;;;;;;6246693;23;20157;-42
2023/09/27 00:38:50;;;;;;;4.63;4.23;;;17.50;99.90;;;;;;6246775;23;20215;-40
2023/09/27 00:41:15;;;;;;;5.23;4.77;;;17.40;99.90;;;;;;6248838;23;20236;-40
2023/09/27 00:43:41;;;;;;;5.83;3.97;;;17.40;99.90;;;;;;6247516;23;20149;-39
2023/09/27 00:46:07;;;;;;;4.57;4.07;;;17.40;99.90;;;;;;6247290;23;20153;-41
2023/09/27 00:48:35;;;;;;;4.80;4.40;;;17.40;99.90;;;;;;6246868;23;20164;-42
2023/09/27 00:51:04;;;;;;;5.30;4.10;;;17.40;99.90;;;;;;6247328;22;20157;-41
2023/09/27 00:53:32;;;;;;;4.10;3.70;;;17.30;99.90;;;;;;6245742;23;20384;-39
2023/09/27 00:55:57;;;;;;;4.33;3.90;;;17.30;99.90;;;;;;6247687;22;20518;-42
2023/09/27 00:58:24;;;;;;;5.43;4.93;;;17.30;99.90;;;;;;6246529;22;20438;-41
2023/09/27 01:00:50;;;;;;;5.20;4.37;;;17.20;99.90;;;;;;6246811;22;20150;-39
2023/09/27 01:03:17;;;;;;;4.40;4.00;;;17.20;99.90;;;;;;6246797;22;20353;-39
2023/09/27 01:05:43;;;;;;;6.23;4.10;;;17.20;99.90;;;;;;6247779;22;20348;-39
2023/09/27 01:08:09;;;;;;;7.60;4.20;;;17.20;99.90;;;;;;6249612;22;20449;-45
2023/09/27 01:10:35;;;;;;;5.00;4.50;;;17.30;99.90;;;;;;6248707;23;20439;-41
2023/09/27 01:13:02;;;;;;;4.70;4.30;;;17.20;99.90;;;;;;6249563;23;20163;-40
2023/09/27 01:15:28;;;;;;;4.23;3.83;;;17.20;99.90;;;;;;6248347;22;20782;-40
2023/09/27 01:17:58;;;;;;;4.20;3.80;;;17.30;99.90;;;;;;6249598;23;20360;-38
2023/09/27 01:20:24;;;;;;;3.97;3.57;;;17.20;99.90;;;;;;6248652;22;20153;-43
2023/09/27 01:23:06;;;;;;;4.40;3.57;;;17.20;99.90;;;;;;6245777;22;20388;-42
2023/09/27 01:25:36;;;;;;;4.87;3.93;;;17.20;99.90;;;;;;6247226;23;20394;-40
2023/09/27 01:28:07;;;;;;;5.00;4.53;;;17.10;99.90;;;;;;6247135;22;20383;-41
2023/09/27 01:30:33;;;;;;;5.60;4.57;;;17.10;99.90;;;;;;6247537;22;20398;-43
2023/09/27 01:33:00;;;;;;;6.83;4.50;;;17.10;99.90;;;;;;6246792;22;20604;-41
2023/09/27 01:35:26;;;;;;;6.10;3.97;;;17.10;99.90;;;;;;6247600;22;20522;-40
2023/09/27 01:37:52;;;;;;;4.10;3.63;;;17.10;99.90;;;;;;6247570;23;20380;-39
2023/09/27 01:40:20;;;;;;;5.33;4.70;;;17.10;99.90;;;;;;6248420;22;20639;-39
2023/09/27 01:42:46;;;;;;;4.47;4.07;;;17.00;99.90;;;;;;6249145;22;20388;-40
2023/09/27 01:45:14;;;;;;;4.43;4.03;;;17.00;99.90;;;;;;6247891;22;20383;-41
2023/09/27 01:47:40;;;;;;;4.50;4.10;;;17.00;99.90;;;;;;6248715;22;20156;-40
2023/09/27 01:50:07;;;;;;;4.43;3.53;;;17.00;99.90;;;;;;6249525;23;20383;-38
2023/09/27 01:52:33;;;;;;;6.80;3.80;;;17.00;99.90;;;;;;6249022;22;20517;-40
2023/09/27 01:54:59;;;;;;;5.07;4.53;;;16.90;99.90;;;;;;6249015;23;20549;-40
2023/09/27 01:57:24;;;;;;;4.53;3.90;;;16.90;99.90;;;;;;6248756;23;20159;-42
2023/09/27 01:59:50;;;;;;;4.27;3.70;;;16.90;99.90;;;;;;6248650;23;20130;-41
2023/09/27 02:02:15;;;;;;;4.73;4.03;;;16.90;99.90;;;;;;6249266;23;20255;-40
2023/09/27 02:04:41;;;;;;;4.30;3.90;;;16.80;99.90;;;;;;6249196;23;20169;-41
2023/09/27 02:07:07;;;;;;;4.27;3.80;;;16.80;99.90;;;;;;6249109;23;20181;-38
2023/09/27 02:09:32;;;;;;;3.80;3.40;;;16.80;99.90;;;;;;6248787;22;20250;-40
2023/09/27 02:11:58;;;;;;;4.57;3.67;;;16.80;99.90;;;;;;6247924;23;20349;-39
2023/09/27 02:14:23;;;;;;;5.93;4.27;;;16.80;99.90;;;;;;6247582;23;20150;-39
2023/09/27 02:16:49;;;;;;;4.37;3.90;;;16.80;99.90;;;;;;6247792;23;20259;-41
2023/09/27 02:19:15;;;;;;;6.13;3.97;;;16.80;99.90;;;;;;6247777;23;20157;-40
2023/09/27 02:21:40;;;;;;;4.97;3.77;;;16.80;99.90;;;;;;6249002;23;20532;-40
2023/09/27 02:24:07;;;;;;;5.20;4.53;;;16.80;99.90;;;;;;6248719;23;20129;-39
2023/09/27 02:26:33;;;;;;;4.47;3.63;;;16.70;99.90;;;;;;6247711;22;20159;-39
2023/09/27 02:29:00;;;;;;;4.13;3.63;;;16.70;99.90;;;;;;6247849;22;20804;-40
2023/09/27 02:31:25;;;;;;;6.20;4.13;;;16.70;1.00;;;;;;6249468;22;20787;-41
2023/09/27 02:33:51;;;;;;;4.90;3.90;;;16.70;1.00;;;;;;6248849;23;20667;-41
2023/09/27 02:36:17;;;;;;;4.53;4.17;;;16.70;1.00;;;;;;6247166;23;20455;-40
2023/09/27 02:38:43;;;;;;;4.30;3.93;;;16.70;1.00;;;;;;6248867;22;20616;-38
2023/09/27 02:41:08;;;;;;;4.67;4.27;;;16.60;1.00;;;;;;6247365;23;20150;-38
2023/09/27 02:43:34;;;;;;;3.87;3.50;;;16.60;1.00;;;;;;6248381;23;20216;-39
2023/09/27 02:46:18;;;;;;;3.97;3.60;;;16.60;1.00;;;;;;6249035;22;20224;-42
2023/09/27 02:48:43;;;;;;;5.90;4.23;;;16.60;1.00;;;;;;6269320;22;20208;-42
2023/09/27 02:51:14;;;;;;;4.23;3.83;;;16.60;1.00;;;;;;6278774;22;20387;-43
2023/09/27 02:53:40;;;;;;;6.90;4.30;;;16.60;1.00;;;;;;6278937;22;20153;-41
2023/09/27 02:56:05;;;;;;;3.93;3.57;;;16.60;1.00;;;;;;6279245;22;20480;-39
2023/09/27 02:58:32;;;;;;;4.17;3.77;;;16.60;1.00;;;;;;6278193;22;20367;-39
2023/09/27 03:00:58;;;;;;;4.50;4.10;;;16.60;1.00;;;;;;6277448;22;20153;-39
2023/09/27 03:03:24;;;;;;;3.80;3.50;;;16.60;1.00;;;;;;6277023;22;20713;-41
2023/09/27 03:05:50;;;;;;;3.80;3.33;;;16.60;1.00;;;;;;6277227;22;20245;-39
2023/09/27 03:08:16;;;;;;;4.30;3.90;;;16.60;1.00;;;;;;6277783;22;20363;-41
2023/09/27 03:10:42;;;;;;;4.40;4.00;;;16.60;1.00;;;;;;6275731;22;20714;-39
2023/09/27 03:13:09;;;;;;;4.77;3.60;;;16.60;1.00;;;;;;6276354;22;20679;-40
2023/09/27 03:15:35;;;;;;;4.50;4.10;;;16.50;1.00;;;;;;6278120;22;20427;-41
2023/09/27 03:18:02;;;;;;;5.07;4.57;;;16.50;1.00;;;;;;6276518;22;20467;-43
2023/09/27 03:20:28;;;;;;;4.03;3.63;;;16.50;1.00;;;;;;6275665;22;20394;-39
2023/09/27 03:22:55;;;;;;;4.03;3.67;;;16.50;1.00;;;;;;6275919;22;20385;-38
2023/09/27 03:25:20;;;;;;;3.63;3.33;;;16.50;1.00;;;;;;6276611;22;20383;-41
2023/09/27 03:27:46;;;;;;;4.93;4.43;;;16.50;1.00;;;;;;6247536;22;20468;-41
2023/09/27 03:30:12;;;;;;;4.73;4.27;;;16.50;1.00;;;;;;6277091;22;20455;-38
2023/09/27 03:32:37;;;;;;;3.83;3.50;;;16.40;1.00;;;;;;6278060;22;20435;-40
2023/09/27 03:35:04;;;;;;;3.93;3.53;;;16.40;1.00;;;;;;6250310;22;20176;-39
2023/09/27 03:37:30;;;;;;;5.27;3.90;;;16.40;1.00;;;;;;6277980;22;20283;-42
2023/09/27 03:39:56;;;;;;;4.33;3.77;;;16.40;1.00;;;;;;6278978;22;20493;-40
2023/09/27 03:42:22;;;;;;;4.50;3.30;;;16.30;1.00;;;;;;6278880;22;20449;-41
2023/09/27 03:44:51;;;;;;;5.70;4.30;;;16.30;1.00;;;;;;6277692;22;20391;-39
2023/09/27 03:47:17;;;;;;;4.70;3.63;;;16.30;1.00;;;;;;6276939;22;20412;-39
2023/09/27 03:49:43;;;;;;;3.73;3.43;;;16.30;1.00;;;;;;6277078;22;20399;-38
2023/09/27 03:52:09;;;;;;;4.40;4.00;;;16.30;1.00;;;;;;6277397;22;20149;-41
2023/09/27 03:54:35;;;;;;;4.10;3.60;;;16.20;1.00;;;;;;6275195;22;20403;-39
2023/09/27 03:57:01;;;;;;;4.80;3.43;;;16.20;1.00;;;;;;6275291;22;20181;-40
2023/09/27 03:59:26;;;;;;;4.00;3.60;;;16.20;1.00;;;;;;6275014;22;20758;-43
2023/09/27 04:01:52;;;;;;;3.87;3.50;;;16.20;1.00;;;;;;6274008;22;20133;-40
2023/09/27 04:04:18;;;;;;;5.37;4.23;;;16.20;1.00;;;;;;6274710;22;20432;-39
2023/09/27 04:06:44;;;;;;;4.27;3.87;;;16.20;1.00;;;;;;6275173;22;20506;-39
2023/09/27 04:09:10;;;;;;;4.30;4.00;;;16.20;1.00;;;;;;6275558;22;20489;-40
2023/09/27 04:11:36;;;;;;;4.30;3.60;;;16.20;1.00;;;;;;6277212;22;20379;-41
2023/09/27 04:14:03;;;;;;;6.40;4.93;;;16.20;1.00;;;;;;6275705;22;20169;-42
2023/09/27 04:16:30;;;;;;;4.50;4.10;;;16.20;1.00;;;;;;6249379;22;20920;-39
2023/09/27 04:18:56;;;;;;;5.27;4.70;;;16.20;1.00;;;;;;6275787;22;20390;-40
2023/09/27 04:21:22;;;;;;;7.37;4.07;;;16.20;1.00;;;;;;6275244;22;20411;-41
2023/09/27 04:23:57;;;;;;;4.80;4.10;;;16.10;1.00;;;;;;6272180;22;20387;-41
2023/09/27 04:26:25;;;;;;;4.90;4.40;;;16.10;1.00;;;;;;6275607;22;20160;-43
2023/09/27 04:28:52;;;;;;;6.17;4.80;;;16.10;1.00;;;;;;6273864;22;20416;-42
2023/09/27 04:31:19;;;;;;;4.60;4.20;;;16.10;1.00;;;;;;6247076;22;20548;-41
2023/09/27 04:33:45;;;;;;;4.77;4.30;;;16.10;1.00;;;;;;6273899;22;20379;-38
2023/09/27 04:36:20;;;;;;;5.30;4.80;;;16.10;1.00;;;;;;6273373;22;20773;-38
2023/09/27 04:38:47;;;;;;;4.30;4.00;;;16.10;1.00;;;;;;6273331;22;20382;-42
2023/09/27 04:41:16;;;;;;;5.00;4.53;;;16.10;1.00;;;;;;6275924;22;20352;-41
2023/09/27 04:43:42;;;;;;;4.50;4.10;;;16.10;1.00;;;;;;6248816;22;20375;-42
2023/09/27 04:46:10;;;;;;;7.90;4.63;;;16.10;1.00;;;;;;6273471;22;20461;-41
2023/09/27 04:49:16;;;;;;;4.90;4.50;;;16.10;1.00;;;;;;6275333;22;20434;-40
2023/09/27 04:51:42;;;;;;;4.73;4.33;;;16.10;1.00;;;;;;6273495;22;20393;-41
2023/09/27 04:54:08;;;;;;;4.87;4.47;;;16.10;1.00;;;;;;6271456;22;20379;-42
2023/09/27 04:56:34;;;;;;;5.17;4.67;;;16.10;1.00;;;;;;6243585;22;20172;-40
2023/09/27 04:59:05;;;;;;;4.60;4.20;;;16.10;1.00;;;;;;6269765;22;20762;-40
2023/09/27 05:01:30;;;;;;;5.03;4.63;;;16.10;1.00;;;;;;6272715;22;20351;-40
2023/09/27 05:03:57;;;;;;;5.37;4.87;;;16.00;1.00;;;;;;6271344;22;20901;-40
2023/09/27 05:06:23;;;;;;;5.20;4.70;;;16.00;1.00;;;;;;6272634;22;20186;-40
2023/09/27 05:08:50;;;;;;;5.13;4.70;;;16.00;1.00;;;;;;6271245;22;20383;-41
2023/09/27 05:11:16;;;;;;;4.60;4.20;;;16.00;1.00;;;;;;6269501;22;20125;-40
2023/09/27 05:13:41;;;;;;;5.60;5.10;;;16.00;1.00;;;;;;6271295;22;20363;-43
2023/09/27 05:16:07;;;;;;;5.20;4.80;;;16.00;1.00;;;;;;6268462;22;20457;-40
2023/09/27 05:18:32;;;;;;;5.93;4.93;;;16.00;1.00;;;;;;6269498;22;20163;-39
2023/09/27 05:21:05;;;;;;;5.07;4.37;;;16.00;1.00;;;;;;6266383;22;20164;-41
2023/09/27 05:23:30;;;;;;;5.13;4.70;;;16.00;35.60;;;;;;6240237;22;20152;-39
2023/09/27 05:25:56;;;;;;;5.63;5.03;;;16.00;76.20;;;;;;6264723;22;20713;-41
2023/09/27 05:28:21;;;;;;;5.00;4.50;;;16.00;92.60;;;;;;6267135;22;20159;-40
2023/09/27 05:30:47;;;;;;;5.20;4.70;;;16.00;60.80;;;;;;6266932;22;20523;-39
2023/09/27 05:33:12;;;;;;;5.43;4.93;;;16.10;33.80;;;;;;6270287;22;20223;-41
2023/09/27 05:35:38;;;;;;;5.47;4.97;;;16.10;28.00;;;;;;6272331;22;20291;-42
2023/09/27 05:38:04;;;;;;;5.30;4.80;;;16.10;19.80;;;;;;6270411;22;20167;-42
2023/09/27 05:40:29;;;;;;;6.50;5.90;;;16.10;1.00;;;;;;6269041;22;20535;-40
2023/09/27 05:42:55;;;;;;;5.70;5.20;;;16.10;1.00;;;;;;6269101;22;20212;-39
2023/09/27 05:45:21;;;;;;;8.90;5.57;;;16.20;4.60;;;;;;6269391;22;20259;-38
2023/09/27 05:47:46;;;;;;;5.47;4.97;;;16.20;1.00;;;;;;6269378;22;20227;-41
2023/09/27 05:50:12;;;;;;;5.20;4.80;;;16.20;1.00;;;;;;6269620;22;20432;-40
2023/09/27 05:52:39;;;;;;;6.20;5.60;;;16.20;3.50;;;;;;6266417;22;20425;-42
2023/09/27 05:55:05;;;;;;;5.23;4.73;;;16.30;1.00;;;;;;6269737;22;20153;-41
2023/09/27 05:57:32;;;;;;;5.40;4.90;;;16.40;1.00;;;;;;6272742;22;20387;-38
2023/09/27 05:59:58;;;;;;;5.13;4.40;;;16.50;1.00;;;;;;6274766;22;20473;-38
2023/09/27 06:02:30;;;;;;;5.40;4.90;;;16.60;1.00;;;;;;6247368;22;20470;-42
2023/09/27 06:04:56;;;;;;;5.87;4.97;;;16.80;1.00;;;;;;6270752;22;20759;-39
2023/09/27 06:07:22;;;;;;;6.73;6.00;;;16.90;1.00;;;;;;6269439;22;20770;-40
2023/09/27 06:09:48;;;;;;;10.43;5.37;;;17.10;1.00;;;;;;6271666;22;20460;-45
2023/09/27 06:12:14;;;;;;;14.13;5.77;;;17.40;1.00;;;;;;6268170;22;20383;-48
2023/09/27 06:14:42;;;;;;;10.20;4.77;;;17.70;1.00;;;;;;6269837;22;20155;-45
2023/09/27 06:17:08;;;;;;;22.40;5.10;;;18.20;1.00;;;;;;6267495;22;20347;-45
2023/09/27 06:19:34;;;;;;;9.63;5.60;;;18.60;99.90;;;;;;6265908;22;20381;-45
2023/09/27 06:22:04;;;;;;;13.40;5.40;;;19.00;99.90;;;;;;6270254;22;20560;-46
2023/09/27 06:24:29;;;;;;;9.37;5.97;;;19.30;99.90;;;;;;6273137;22;20716;-46
2023/09/27 06:26:55;;;;;;;6.50;4.97;;;19.50;99.90;;;;;;6271725;22;20555;-45
2023/09/27 06:29:20;;;;;;;14.43;5.60;;;19.70;68.70;;;;;;6268733;22;20160;-45
2023/09/27 06:31:49;;;;;;;5.90;4.60;;;19.90;33.10;;;;;;6269304;22;20129;-46
2023/09/27 06:34:16;;;;;;;8.60;5.30;;;20.00;11.90;;;;;;6244253;22;20156;-46
2023/09/27 06:36:42;;;;;;;9.77;5.43;;;20.10;1.00;;;;;;6270027;22;20449;-46
2023/09/27 06:39:13;;;;;;;11.33;5.50;;;20.20;1.00;;;;;;6269976;22;20451;-46
2023/09/27 06:41:40;;;;;;;16.10;6.60;;;20.30;1.00;;;;;;6273904;22;20387;-46
2023/09/27 06:44:06;;;;;;;12.57;5.73;;;20.40;1.00;;;;;;6246124;22;20347;-46
2023/09/27 06:46:33;;;;;;;20.17;6.47;;;20.60;1.00;;;;;;6271294;22;20460;-47
2023/09/27 06:48:59;;;;;;;8.07;5.33;;;20.70;1.00;;;;;;6271461;22;20545;-46
2023/09/27 06:51:24;;;;;;;11.60;5.30;;;20.80;1.00;;;;;;6272314;22;20387;-46
2023/09/27 06:53:50;;;;;;;12.37;5.47;;;21.00;1.00;;;;;;6271920;22;20538;-46
2023/09/27 06:56:15;;;;;;;15.03;6.17;;;21.10;1.00;;;;;;6272414;22;20182;-47
2023/09/27 06:58:41;;;;;;;14.40;5.47;;;21.30;1.00;;;;;;6272710;22;20160;-40
2023/09/27 07:01:07;;;;;;;24.93;8.50;;;21.40;1.00;;;;;;6273859;22;20168;-41
2023/09/27 07:03:36;;;;;;;19.37;6.37;;;21.60;1.00;;;;;;6272934;22;20607;-41
2023/09/27 07:06:02;;;;;;;20.10;6.53;;;21.80;1.00;;;;;;6272303;22;20432;-40
2023/09/27 07:08:28;;;;;;;12.60;6.17;;;22.00;1.00;;;;;;6273598;22;20383;-40
2023/09/27 07:10:53;;;;;;;12.70;6.37;;;22.10;1.00;;;;;;6275666;22;20359;-40
2023/09/27 07:13:19;;;;;;;15.50;6.57;;;22.30;1.00;;;;;;6275806;22;20149;-40
2023/09/27 07:15:48;;;;;;;11.43;6.23;;;22.50;1.00;;;;;;6275221;22;20153;-41
2023/09/27 07:18:13;;;;;;;15.13;6.70;;;22.60;1.00;;;;;;6273957;22;20504;-41
2023/09/27 07:20:40;;;;;;;8.43;5.53;;;22.80;1.00;;;;;;6276944;22;20776;-39
2023/09/27 07:23:07;;;;;;;11.43;6.40;;;22.90;1.00;;;;;;6276795;22;20140;-40
2023/09/27 07:25:35;;;;;;;15.13;6.47;;;23.10;1.00;;;;;;6273069;22;20519;-41
2023/09/27 07:28:04;;;;;;;12.10;5.70;;;23.20;1.00;;;;;;6272174;22;20383;-41
2023/09/27 07:30:33;;;;;;;15.97;6.33;;;23.30;1.00;;;;;;6273343;22;20415;-41
2023/09/27 07:32:59;;;;;;;9.67;5.00;;;23.50;1.00;;;;;;6271248;22;20383;-41
2023/09/27 07:35:29;;;;;;;12.43;5.60;;;23.70;1.00;;;;;;6271212;22;20809;-41
2023/09/27 07:37:55;;;;;;;10.87;5.00;;;23.80;1.00;;;;;;6271535;22;20208;-39
2023/09/27 07:40:21;;;;;;;8.17;4.80;;;24.00;1.00;;;;;;6273894;22;20391;-40
2023/09/27 07:42:48;;;;;;;8.83;5.17;;;24.20;1.00;;;;;;6275183;22;20391;-39
2023/09/27 07:45:21;;;;;;;11.43;6.67;;;24.30;1.00;;;;;;6275026;22;20176;-40
2023/09/27 07:47:50;;;;;;;13.00;5.37;;;24.50;1.00;;;;;;6275174;22;20488;-40
2023/09/27 07:50:26;;;;;;;10.00;6.17;;;24.70;1.00;;;;;;6273028;22;20359;-39
2023/09/27 07:52:53;;;;;;;9.50;5.03;;;24.90;1.00;;;;;;6273848;22;20434;-40
2023/09/27 07:55:21;;;;;;;10.70;5.80;;;25.00;1.00;;;;;;6274801;22;20436;-41
2023/09/27 07:57:46;;;;;;;8.30;5.23;;;25.20;1.00;;;;;;6274480;22;20422;-41
2023/09/27 08:00:15;;;;;;;10.77;6.20;;;25.40;1.00;;;;;;6273210;22;20379;-39
2023/09/27 08:02:42;;;;;;;20.10;7.33;;;25.50;1.00;;;;;;6273262;22;20603;-44
2023/09/27 08:05:11;;;;;;;22.07;5.80;;;25.90;1.00;;;;;;6273760;22;20403;-43
2023/09/27 08:07:37;;;;;;;19.37;6.10;;;26.20;1.00;;;;;;6273591;22;20794;-39
2023/09/27 08:10:04;;;;;;;16.27;6.30;;;26.50;1.00;;;;;;6274108;22;20399;-42
2023/09/27 08:12:31;;;;;;;15.87;5.80;;;26.70;1.00;;;;;;6271579;22;20777;-39
2023/09/27 08:14:58;;;;;;;10.67;5.73;;;26.80;1.00;;;;;;6273819;22;20662;-43
2023/09/27 08:17:24;;;;;;;16.20;5.83;;;27.00;1.00;;;;;;6273370;22;20908;-42
2023/09/27 08:19:50;;;;;;;11.47;5.37;;;27.20;1.00;;;;;;6270697;22;20355;-41
2023/09/27 08:22:15;;;;;;;7.33;4.83;;;27.30;1.00;;;;;;6270338;22;20375;-43
2023/09/27 08:24:41;;;;;;;6.00;4.90;;;27.60;1.00;;;;;;6271085;22;20290;-41
2023/09/27 08:27:07;;;;;;;13.93;5.07;;;27.80;1.00;;;;;;6273375;22;20359;-42
2023/09/27 08:29:32;;;;;;;9.60;5.30;;;28.00;1.00;;;;;;6272593;22;20214;-40
2023/09/27 08:31:58;;;;;;;10.47;5.40;;;28.20;1.00;;;;;;6271180;22;20136;-42
2023/09/27 08:34:24;;;;;;;15.70;6.33;;;28.50;1.00;;;;;;6272499;22;20148;-44
2023/09/27 08:36:49;;;;;;;11.67;5.57;;;28.70;1.00;;;;;;6270705;22;20227;-43
2023/09/27 08:39:15;;;;;;;11.40;5.60;;;28.90;1.00;;;;;;6272474;22;20417;-40
2023/09/27 08:41:41;;;;;;;9.33;5.20;;;29.10;1.00;;;;;;6273571;22;20229;-43
2023/09/27 08:44:07;;;;;;;9.83;6.43;;;29.40;1.00;;;;;;6272507;22;20458;-40
2023/09/27 08:46:34;;;;;;;12.80;5.00;;;29.60;1.00;;;;;;6244950;22;20478;-42
2023/09/27 08:49:01;;;;;;;6.80;4.40;;;29.90;1.00;;;;;;6264174;22;20780;-41
2023/09/27 08:51:29;;;;;;;12.37;5.37;;;30.10;1.00;;;;;;6274948;22;20393;-42
2023/09/27 08:53:55;;;;;;;10.33;5.13;;;30.30;1.00;;;;;;6273317;22;20387;-42
2023/09/27 08:56:23;;;;;;;9.00;5.00;;;30.40;1.00;;;;;;6274820;22;20359;-41
2023/09/27 08:58:49;;;;;;;7.30;4.20;;;30.60;1.00;;;;;;6274183;22;20144;-40
2023/09/27 09:01:14;;;;;;;10.00;5.83;;;30.80;1.00;;;;;;6273745;22;20415;-42
2023/09/27 09:03:41;;;;;;;7.87;5.00;;;31.00;1.00;;;;;;6272152;22;20163;-41
2023/09/27 09:06:12;;;;;;;6.40;4.87;;;31.20;1.00;;;;;;6272151;22;20226;-43
2023/09/27 09:08:42;;;;;;;6.70;4.50;;;31.30;1.00;;;;;;6271535;22;20397;-40
2023/09/27 09:11:10;;;;;;;6.30;4.40;;;31.50;1.00;;;;;;6273489;22;20367;-41
2023/09/27 09:13:56;;;;;;;7.60;4.53;;;31.70;1.00;;;;;;6274338;22;20411;-40
2023/09/27 09:16:23;;;;;;;6.27;4.70;;;32.00;1.00;;;;;;6276358;22;20367;-42
2023/09/27 09:18:51;;;;;;;16.70;6.00;;;32.30;1.00;;;;;;6275603;22;20794;-41
2023/09/27 09:21:19;;;;;;;13.93;4.80;;;32.50;1.00;;;;;;6275179;22;20375;-42
2023/09/27 09:23:49;;;;;;;6.27;4.47;;;32.70;1.00;;;;;;6276336;22;20377;-39
2023/09/27 09:26:27;;;;;;;4.20;3.80;;;32.90;1.00;;;;;;6275029;22;20446;-40
2023/09/27 09:28:56;;;;;;;7.93;5.10;;;33.30;1.00;;;;;;6276342;22;20351;-39
2023/09/27 09:31:26;;;;;;;13.13;5.50;;;33.60;1.00;;;;;;6276989;22;20368;-42
2023/09/27 09:34:02;;;;;;;14.90;5.70;;;34.00;1.00;;;;;;6275610;22;20387;-40
2023/09/27 09:36:28;;;;;;;19.77;6.30;;;34.20;1.00;;;;;;6276916;22;20370;-43
2023/09/27 09:39:04;;;;;;;27.07;7.30;;;34.20;1.00;;;;;;6275275;22;20357;-41
2023/09/27 09:41:49;;;;;;;17.37;7.60;;;34.20;1.00;;;;;;6273335;22;20658;-42
2023/09/27 09:44:22;;;;;;;14.37;6.60;;;34.50;1.00;;;;;;6274199;22;20368;-44
2023/09/27 09:46:48;;;;;;;22.77;8.50;;;34.80;1.00;;;;;;6275049;22;20402;-39
2023/09/27 09:49:15;;;;;;;25.83;8.13;;;35.10;1.00;;;;;;6274857;22;20475;-40
2023/09/27 09:51:46;;;;;;;27.70;8.60;;;35.30;1.00;;;;;;6274928;22;20353;-39
2023/09/27 09:54:36;;;;;;;29.67;9.83;;;35.40;1.00;;;;;;6275511;22;20390;-38
2023/09/27 09:57:06;;;;;;;39.47;11.43;;;35.70;1.00;;;;;;6274505;22;20652;-40
2023/09/27 09:59:38;;;;;;;21.73;9.10;;;36.20;1.00;;;;;;6275440;22;20357;-40
2023/09/27 10:02:16;;;;;;;23.67;8.83;;;36.50;1.00;;;;;;6276732;22;20342;-43
2023/09/27 10:04:42;;;;;;;34.77;9.40;;;36.60;1.00;;;;;;6275898;22;20387;-39
2023/09/27 10:07:08;;;;;;;25.10;8.30;;;36.80;1.00;;;;;;6249802;22;20401;-40
2023/09/27 10:09:33;;;;;;;30.87;9.63;;;37.00;1.00;;;;;;6251551;22;20376;-41
2023/09/27 10:11:59;;;;;;;25.20;8.97;;;37.10;1.00;;;;;;6247285;22;20272;-41
2023/09/27 10:14:25;;;;;;;30.10;9.13;;;37.40;1.00;;;;;;6277432;22;20229;-39
2023/09/27 10:16:51;;;;;;;29.33;8.93;;;37.70;1.00;;;;;;6248783;22;20710;-39
2023/09/27 10:19:26;;;;;;;27.10;10.27;;;38.00;1.00;;;;;;6275479;22;20221;-39
2023/09/27 10:22:05;;;;;;;28.50;8.40;;;38.00;1.00;;;;;;6274501;22;20214;-40
2023/09/27 10:24:36;;;;;;;14.70;6.07;;;38.10;1.00;;;;;;6275117;22;20341;-42
2023/09/27 10:27:01;;;;;;;18.43;8.77;;;38.20;1.00;;;;;;6273643;22;20869;-40
2023/09/27 10:29:27;;;;;;;16.80;6.70;;;38.50;1.00;;;;;;6275822;22;20665;-44
2023/09/27 10:31:56;;;;;;;13.03;5.70;;;38.80;1.00;;;;;;6274281;22;20141;-41
2023/09/27 10:34:30;;;;;;;18.90;7.47;;;38.70;1.00;;;;;;6277303;22;20367;-41
2023/09/27 10:37:02;;;;;;;13.00;6.77;;;38.70;1.00;;;;;;6276319;22;20393;-42
2023/09/27 10:39:28;;;;;;;14.93;6.90;;;38.80;1.00;;;;;;6275750;22;20367;-39
2023/09/27 10:41:54;;;;;;;15.27;5.70;;;38.90;1.00;;;;;;6248120;22;20410;-41
2023/09/27 10:44:33;;;;;;;11.63;6.50;;;38.80;1.00;;;;;;6273057;22;20420;-42
2023/09/27 10:47:04;;;;;;;10.70;6.10;;;38.90;1.00;;;;;;6275226;22;20178;-41
2023/09/27 10:49:41;;;;;;;13.50;5.70;;;39.40;1.00;;;;;;6269624;22;20738;-41
2023/09/27 10:52:16;;;;;;;13.47;5.67;;;39.60;1.00;;;;;;6273552;22;20479;-42
2023/09/27 10:54:43;;;;;;;10.83;5.37;;;40.00;1.00;;;;;;6276244;22;20867;-40
2023/09/27 10:57:09;;;;;;;8.80;4.93;;;40.40;1.00;;;;;;6272614;22;20423;-43
2023/09/27 10:59:35;;;;;;;28.60;8.07;;;40.90;1.00;;;;;;6274537;22;20356;-40
2023/09/27 11:02:02;;;;;;;11.20;4.60;;;41.10;1.00;;;;;;6271918;22;20251;-44
2023/09/27 11:04:29;;;;;;;7.03;4.10;;;40.80;1.00;;;;;;6272805;22;20402;-41
2023/09/27 11:06:56;;;;;;;9.30;4.47;;;40.60;1.00;;;;;;6275109;22;20486;-42
2023/09/27 11:09:23;;;;;;;8.90;4.40;;;40.20;1.00;;;;;;6272901;22;20957;-40
2023/09/27 11:11:54;;;;;;;10.20;3.80;;;39.70;1.00;;;;;;6273757;22;20845;-39
2023/09/27 11:14:32;;;;;;;7.73;3.87;;;39.90;1.00;;;;;;6274399;22;20682;-40
2023/09/27 11:17:18;;;;;;;9.80;4.00;;;39.60;1.00;;;;;;6273076;22;20411;-40
2023/09/27 11:19:44;;;;;;;15.60;4.40;;;39.30;1.00;;;;;;6271081;22;20386;-41
2023/09/27 11:22:10;;;;;;;10.40;4.80;;;39.50;1.00;;;;;;6274066;22;20443;-44
2023/09/27 11:24:39;;;;;;;11.10;5.20;;;39.70;1.00;;;;;;6274633;22;20383;-40
2023/09/27 11:27:09;;;;;;;4.50;3.17;;;39.60;1.00;;;;;;6269094;22;20330;-39
2023/09/27 11:29:35;;;;;;;6.63;3.50;;;40.10;1.00;;;;;;6267628;22;20383;-42
2023/09/27 11:32:01;;;;;;;7.90;3.73;;;40.00;1.00;;;;;;6270696;22;20680;-40
2023/09/27 11:34:26;;;;;;;8.67;3.90;;;40.10;1.00;;;;;;6270997;22;20538;-40
2023/09/27 11:36:53;;;;;;;9.70;4.00;;;40.20;1.00;;;;;;6272246;22;20267;-42
2023/09/27 11:39:46;;;;;;;4.17;3.37;;;40.60;1.00;;;;;;6271449;22;20290;-40
2023/09/27 11:42:11;;;;;;;8.30;3.40;;;40.60;1.00;;;;;;6271617;22;20379;-41
2023/09/27 11:44:37;;;;;;;3.90;3.50;;;40.60;1.00;;;;;;6274438;22;20402;-40
2023/09/27 11:47:10;;;;;;;4.90;3.00;;;40.80;1.00;;;;;;6274607;22;20543;-41
2023/09/27 11:49:36;;;;;;;4.73;3.23;;;40.70;1.00;;;;;;6273141;22;20387;-41
2023/09/27 11:52:02;;;;;;;3.10;2.70;;;40.80;1.00;;;;;;6273205;22;20417;-40
2023/09/27 11:54:29;;;;;;;4.07;2.73;;;41.00;1.00;;;;;;6272418;22;20200;-41
2023/09/27 11:56:54;;;;;;;9.40;3.10;;;41.50;1.00;;;;;;6274527;22;20730;-40
2023/09/27 11:59:20;;;;;;;2.60;2.40;;;41.90;1.00;;;;;;6274751;22;20497;-42
2023/09/27 12:01:46;;;;;;;6.20;3.60;;;42.20;1.00;;;;;;6248111;22;20152;-40
2023/09/27 12:04:11;;;;;;;13.30;3.93;;;42.60;1.00;;;;;;6276166;22;20166;-39
2023/09/27 12:06:37;;;;;;;7.83;3.67;;;42.80;1.00;;;;;;6274146;22;20448;-46
2023/09/27 12:09:05;;;;;;;3.63;3.20;;;42.40;1.00;;;;;;6271542;22;20155;-42
2023/09/27 12:11:31;;;;;;;6.70;3.60;;;42.00;1.00;;;;;;6273188;22;20797;-41
2023/09/27 12:13:57;;;;;;;6.33;2.93;;;41.20;1.00;;;;;;6273276;22;20763;-45
2023/09/27 12:16:23;;;;;;;3.40;3.00;;;40.60;1.00;;;;;;6275749;22;20484;-41
2023/09/27 12:18:49;;;;;;;4.43;2.53;;;40.00;1.00;;;;;;6275301;22;20788;-41
2023/09/27 12:21:15;;;;;;;2.70;2.50;;;39.80;1.00;;;;;;6274178;22;20743;-43
2023/09/27 12:23:41;;;;;;;3.10;2.80;;;39.50;1.00;;;;;;6274058;22;20155;-41
2023/09/27 12:26:09;;;;;;;3.33;3.03;;;39.20;1.00;;;;;;6272748;22;20484;-40
2023/09/27 12:28:36;;;;;;;4.67;3.23;;;38.70;1.00;;;;;;6272404;22;20763;-39
2023/09/27 12:31:05;;;;;;;6.03;2.77;;;38.30;1.00;;;;;;6273872;22;20383;-38
2023/09/27 12:33:31;;;;;;;4.20;2.60;;;37.40;1.00;;;;;;6273923;22;20395;-38
2023/09/27 12:35:57;;;;;;;4.00;3.17;;;37.20;1.00;;;;;;6273383;22;20418;-37
2023/09/27 12:38:24;;;;;;;3.10;2.90;;;37.20;1.00;;;;;;6274473;22;20378;-38
2023/09/27 12:40:50;;;;;;;5.60;3.17;;;37.40;1.00;;;;;;6274965;22;20517;-37
2023/09/27 12:43:15;;;;;;;6.37;2.97;;;37.40;1.00;;;;;;6273174;22;20350;-38
2023/09/27 12:45:41;;;;;;;3.20;2.70;;;37.60;1.00;;;;;;6271800;22;20156;-36
2023/09/27 12:48:07;;;;;;;6.37;2.90;;;38.10;1.00;;;;;;6273534;22;20196;-37
2023/09/27 12:50:33;;;;;;;3.03;2.83;;;38.50;1.00;;;;;;6271999;22;20153;-38
2023/09/27 12:53:01;;;;;;;3.10;2.53;;;38.90;1.00;;;;;;6270117;22;20253;-39